Time;durP1;ratioP1;P1;durP2;ratioP2;P2;SDS_P1;SDS_P2;PMS_P1;PMS_P2;Temp;Humidity;BMP_temperature;BMP_pressure;BME280_temperature;BME280_humidity;BME280_pressure;Samples;Min_cycle;Max_cycle;Signal;HPM_P1;HPM_P2
2021/03/23 00:01:10;;;;;;;8.30;5.22;;;5.90;90.80;;;;;;5025947;28;20032;-77
2021/03/23 00:03:37;;;;;;;7.47;4.45;;;5.80;91.10;;;;;;5045374;28;20396;-77
2021/03/23 00:06:03;;;;;;;5.53;3.65;;;5.90;91.40;;;;;;5017857;28;20025;-77
2021/03/23 00:08:34;;;;;;;4.05;2.50;;;5.80;91.10;;;;;;5015510;28;20037;-77
2021/03/23 00:11:11;;;;;;;6.50;4.30;;;5.80;91.20;;;;;;5031926;28;20087;-77
2021/03/23 00:13:38;;;;;;;8.00;4.60;;;5.90;91.00;;;;;;5047482;28;20036;-77
2021/03/23 00:16:04;;;;;;;12.40;5.28;;;5.90;91.10;;;;;;5052141;28;20416;-77
2021/03/23 00:18:29;;;;;;;5.78;4.40;;;5.90;90.90;;;;;;5014785;28;20124;-77
2021/03/23 00:20:55;;;;;;;5.28;3.92;;;5.90;90.80;;;;;;5019900;28;20112;-77
2021/03/23 00:23:20;;;;;;;9.55;4.13;;;5.90;90.80;;;;;;5020420;28;20086;-77
2021/03/23 00:25:46;;;;;;;8.93;4.32;;;5.90;90.90;;;;;;5049974;28;20025;-77
2021/03/23 00:28:12;;;;;;;11.98;4.75;;;5.80;90.90;;;;;;5054045;28;20025;-77
2021/03/23 00:30:37;;;;;;;8.85;4.28;;;5.80;91.00;;;;;;5049653;28;20110;-77
2021/03/23 00:33:03;;;;;;;8.07;4.40;;;5.80;91.20;;;;;;5029584;28;20052;-77
2021/03/23 00:35:28;;;;;;;7.80;5.13;;;5.80;91.10;;;;;;5035611;28;20117;-77
2021/03/23 00:37:55;;;;;;;8.60;4.25;;;5.80;91.10;;;;;;5019277;28;20021;-77
2021/03/23 00:40:25;;;;;;;7.50;4.30;;;5.80;91.30;;;;;;5019083;28;20463;-77
2021/03/23 00:42:51;;;;;;;5.88;3.25;;;5.80;91.10;;;;;;5018481;28;20037;-77
2021/03/23 00:45:17;;;;;;;5.00;3.30;;;5.80;91.20;;;;;;5054929;28;20384;-77
2021/03/23 00:47:42;;;;;;;5.10;3.78;;;5.80;91.20;;;;;;5033001;28;20032;-77
2021/03/23 00:50:08;;;;;;;5.20;3.70;;;5.80;91.00;;;;;;5029686;28;20472;-77
2021/03/23 00:52:33;;;;;;;4.68;3.00;;;5.80;91.00;;;;;;5041369;28;20098;-77
2021/03/23 00:54:59;;;;;;;6.20;3.70;;;5.80;91.10;;;;;;5035504;28;20030;-77
2021/03/23 00:57:25;;;;;;;6.03;3.67;;;5.80;90.90;;;;;;5019168;28;20047;-77
2021/03/23 00:59:50;;;;;;;4.38;3.28;;;5.90;90.90;;;;;;5030262;28;20914;-77
2021/03/23 01:02:16;;;;;;;7.60;4.13;;;5.90;90.90;;;;;;5051465;28;20392;-77
2021/03/23 01:04:41;;;;;;;9.70;5.28;;;5.90;90.80;;;;;;5033038;28;20397;-77
2021/03/23 01:07:07;;;;;;;11.30;5.10;;;5.90;90.70;;;;;;5035913;28;20036;-77
2021/03/23 01:09:32;;;;;;;7.60;4.63;;;5.90;90.60;;;;;;5053407;28;20509;-77
2021/03/23 01:11:58;;;;;;;9.35;5.80;;;5.90;90.80;;;;;;5036010;28;20045;-77
2021/03/23 01:14:23;;;;;;;6.78;4.82;;;5.90;90.60;;;;;;5033262;28;20062;-77
2021/03/23 01:16:49;;;;;;;10.30;5.82;;;5.90;90.70;;;;;;5034936;28;20039;-77
2021/03/23 01:19:15;;;;;;;8.65;5.13;;;5.90;90.60;;;;;;5052411;28;20044;-77
2021/03/23 01:21:40;;;;;;;11.52;8.00;;;5.90;90.60;;;;;;5034055;28;20025;-77
2021/03/23 01:24:06;;;;;;;11.70;7.05;;;5.90;90.60;;;;;;5024780;28;20040;-77
2021/03/23 01:26:32;;;;;;;13.05;8.60;;;5.80;90.80;;;;;;5022504;28;20025;-77
2021/03/23 01:28:57;;;;;;;13.10;7.85;;;5.70;91.00;;;;;;5006487;28;20544;-77
2021/03/23 01:31:23;;;;;;;15.95;9.27;;;5.60;91.10;;;;;;5018206;28;20021;-77
2021/03/23 01:33:49;;;;;;;12.38;7.78;;;5.60;91.10;;;;;;5029693;28;20051;-77
2021/03/23 01:36:14;;;;;;;8.88;5.75;;;5.70;91.00;;;;;;5050293;28;20062;-77
2021/03/23 01:38:40;;;;;;;15.60;8.02;;;5.70;91.00;;;;;;5026308;28;20036;-77
2021/03/23 01:41:05;;;;;;;11.10;7.43;;;5.70;90.90;;;;;;5028199;28;20051;-77
2021/03/23 01:43:33;;;;;;;12.32;8.18;;;5.70;90.90;;;;;;5008489;28;20033;-77
2021/03/23 01:45:59;;;;;;;11.55;7.25;;;5.80;90.90;;;;;;5018612;28;20036;-77
2021/03/23 01:48:30;;;;;;;13.48;9.05;;;5.70;90.70;;;;;;5033283;28;20381;-78
2021/03/23 01:51:02;;;;;;;12.48;6.70;;;5.80;90.70;;;;;;5031922;28;20536;-77
2021/03/23 01:53:49;;;;;;;14.27;8.95;;;5.80;90.80;;;;;;5033792;28;20547;-78
2021/03/23 01:56:16;;;;;;;16.40;9.55;;;5.80;90.80;;;;;;5010792;28;20091;-77
2021/03/23 01:58:44;;;;;;;13.70;8.43;;;5.70;90.80;;;;;;5016589;28;20545;-78
2021/03/23 02:01:11;;;;;;;14.05;7.97;;;5.70;90.80;;;;;;5045818;28;20044;-77
2021/03/23 02:03:37;;;;;;;12.85;7.32;;;5.80;90.70;;;;;;5032250;28;20025;-78
2021/03/23 02:06:04;;;;;;;11.85;7.78;;;5.80;90.70;;;;;;5037376;28;20043;-78
2021/03/23 02:08:29;;;;;;;17.35;9.88;;;5.70;90.70;;;;;;5017349;28;20029;-78
2021/03/23 02:10:56;;;;;;;10.98;7.78;;;5.70;90.80;;;;;;5046611;28;20036;-78
2021/03/23 02:13:21;;;;;;;11.85;7.35;;;5.80;90.80;;;;;;5034244;28;20075;-78
2021/03/23 02:15:47;;;;;;;14.43;8.68;;;5.90;90.70;;;;;;5032244;28;20064;-78
2021/03/23 02:18:17;;;;;;;12.70;8.45;;;5.90;90.60;;;;;;5050321;28;20119;-78
2021/03/23 02:20:59;;;;;;;12.82;8.25;;;5.90;90.60;;;;;;5032841;28;20486;-77
2021/03/23 02:23:26;;;;;;;15.45;8.93;;;5.90;90.60;;;;;;5050575;28;20032;-77
2021/03/23 02:25:51;;;;;;;10.80;7.15;;;5.90;90.50;;;;;;5017072;28;20080;-77
2021/03/23 02:28:18;;;;;;;13.07;7.57;;;6.00;90.40;;;;;;5019193;28;20028;-77
2021/03/23 02:30:43;;;;;;;18.05;11.00;;;5.90;90.50;;;;;;5046607;28;20040;-77
2021/03/23 02:33:09;;;;;;;12.90;8.57;;;5.90;90.30;;;;;;5027832;28;20033;-77
2021/03/23 02:35:36;;;;;;;12.02;6.93;;;5.90;90.30;;;;;;5033255;28;20111;-77
2021/03/23 02:38:01;;;;;;;11.90;7.35;;;5.90;90.30;;;;;;5040205;28;20053;-78
2021/03/23 02:40:27;;;;;;;12.07;7.45;;;5.90;90.40;;;;;;5016587;28;20056;-77
2021/03/23 02:42:53;;;;;;;10.40;7.45;;;6.00;90.40;;;;;;5031314;28;20037;-78
2021/03/23 02:45:18;;;;;;;14.40;8.75;;;5.90;90.50;;;;;;5017944;28;20036;-78
2021/03/23 02:47:44;;;;;;;15.13;8.60;;;5.90;90.20;;;;;;5024566;28;20168;-78
2021/03/23 02:50:10;;;;;;;13.10;8.65;;;5.90;90.30;;;;;;5026480;28;20177;-78
2021/03/23 02:52:35;;;;;;;14.43;7.68;;;5.90;90.30;;;;;;5032114;28;20036;-78
2021/03/23 02:55:02;;;;;;;14.27;7.75;;;5.90;90.30;;;;;;5027261;28;20026;-78
2021/03/23 02:57:27;;;;;;;24.50;11.30;;;5.90;90.30;;;;;;5016726;28;20021;-77
2021/03/23 02:59:53;;;;;;;14.63;7.97;;;6.00;90.20;;;;;;5046917;28;20385;-77
2021/03/23 03:02:18;;;;;;;16.88;9.75;;;5.90;90.30;;;;;;5030074;28;20045;-77
2021/03/23 03:04:44;;;;;;;18.67;10.43;;;5.90;90.30;;;;;;5009521;28;20036;-77
2021/03/23 03:07:10;;;;;;;14.23;9.55;;;6.00;90.20;;;;;;5011951;28;20052;-77
2021/03/23 03:09:35;;;;;;;16.98;9.90;;;5.90;90.30;;;;;;5048691;28;20061;-77
2021/03/23 03:12:00;;;;;;;16.02;9.18;;;5.90;90.30;;;;;;5050041;28;20025;-77
2021/03/23 03:14:26;;;;;;;15.55;8.40;;;5.90;90.50;;;;;;5032696;28;20090;-77
2021/03/23 03:16:52;;;;;;;20.17;11.75;;;5.90;90.50;;;;;;5050861;28;20032;-77
2021/03/23 03:19:18;;;;;;;18.30;8.88;;;5.90;90.40;;;;;;5034812;28;20021;-77
2021/03/23 03:21:44;;;;;;;14.13;8.50;;;5.90;90.30;;;;;;5024840;28;20029;-77
2021/03/23 03:24:10;;;;;;;13.85;8.65;;;5.90;90.30;;;;;;5033889;28;20020;-77
2021/03/23 03:26:35;;;;;;;19.20;10.10;;;5.90;90.40;;;;;;5032181;28;20075;-77
2021/03/23 03:29:01;;;;;;;20.45;10.85;;;5.90;90.30;;;;;;5025928;28;20032;-77
2021/03/23 03:31:27;;;;;;;16.27;9.13;;;5.80;90.40;;;;;;5032037;28;20025;-78
2021/03/23 03:33:53;;;;;;;14.13;8.45;;;5.80;90.70;;;;;;5014365;28;20033;-77
2021/03/23 03:36:20;;;;;;;15.55;9.05;;;6.00;90.60;;;;;;5016091;28;20369;-77
2021/03/23 03:38:45;;;;;;;16.00;9.57;;;5.90;90.30;;;;;;5046713;28;20116;-77
2021/03/23 03:41:11;;;;;;;17.50;10.18;;;5.90;90.30;;;;;;5035917;28;20108;-77
2021/03/23 03:43:36;;;;;;;16.15;9.98;;;5.90;90.40;;;;;;5001724;28;20038;-78
2021/03/23 03:46:02;;;;;;;18.10;11.10;;;5.90;90.40;;;;;;5023379;28;20040;-77
2021/03/23 03:48:28;;;;;;;15.98;9.38;;;5.80;90.30;;;;;;5032197;28;20108;-77
2021/03/23 03:50:54;;;;;;;21.77;10.82;;;5.80;90.50;;;;;;5017112;28;20396;-77
2021/03/23 03:53:19;;;;;;;19.13;9.27;;;5.70;90.40;;;;;;5020617;28;20040;-77
2021/03/23 03:55:45;;;;;;;18.27;10.55;;;5.70;90.60;;;;;;5033802;28;20029;-77
2021/03/23 03:58:11;;;;;;;18.75;9.40;;;5.70;90.60;;;;;;5038068;28;20033;-77
2021/03/23 04:00:37;;;;;;;18.38;10.48;;;5.80;90.60;;;;;;5029345;28;20047;-77
2021/03/23 04:03:04;;;;;;;20.30;11.10;;;5.80;90.50;;;;;;5037723;28;20041;-77
2021/03/23 04:05:35;;;;;;;20.05;10.70;;;5.90;90.40;;;;;;5035106;28;20082;-77
2021/03/23 04:08:01;;;;;;;14.07;8.98;;;5.90;90.30;;;;;;5030310;28;20029;-78
2021/03/23 04:10:27;;;;;;;22.35;9.80;;;5.80;90.40;;;;;;5033073;28;20040;-77
2021/03/23 04:12:52;;;;;;;13.70;9.27;;;5.90;90.50;;;;;;5018761;28;20029;-77
2021/03/23 04:15:19;;;;;;;21.48;10.60;;;5.90;90.40;;;;;;5051203;28;20083;-76
2021/03/23 04:17:45;;;;;;;13.82;7.65;;;5.80;90.40;;;;;;5031687;28;20392;-77
2021/03/23 04:20:11;;;;;;;19.35;11.50;;;5.90;90.50;;;;;;5051890;28;20037;-77
2021/03/23 04:22:37;;;;;;;22.95;12.15;;;5.80;90.40;;;;;;5019731;28;20033;-77
2021/03/23 04:25:03;;;;;;;17.17;10.63;;;5.70;90.50;;;;;;5034700;28;20513;-77
2021/03/23 04:27:28;;;;;;;15.10;8.73;;;5.70;90.60;;;;;;5017176;28;20445;-77
2021/03/23 04:29:54;;;;;;;18.75;11.35;;;5.70;90.80;;;;;;5051038;28;20033;-77
2021/03/23 04:32:19;;;;;;;20.00;11.05;;;5.80;90.70;;;;;;5036389;28;20025;-77
2021/03/23 04:34:45;;;;;;;19.38;11.38;;;5.70;90.70;;;;;;5049577;28;20057;-77
2021/03/23 04:37:10;;;;;;;14.40;8.27;;;5.60;90.70;;;;;;5029417;28;20017;-77
2021/03/23 04:39:36;;;;;;;16.27;8.60;;;5.70;90.70;;;;;;5036095;28;20025;-77
2021/03/23 04:42:01;;;;;;;15.30;8.00;;;5.80;90.60;;;;;;5010316;28;20029;-77
2021/03/23 04:44:27;;;;;;;15.43;9.35;;;5.80;90.60;;;;;;5030791;28;20050;-77
2021/03/23 04:46:53;;;;;;;18.90;11.10;;;5.90;90.50;;;;;;5046668;28;20033;-77
2021/03/23 04:49:18;;;;;;;15.18;8.27;;;5.80;90.40;;;;;;5016489;28;20112;-77
2021/03/23 04:51:44;;;;;;;17.92;10.20;;;5.80;90.60;;;;;;5033119;28;20370;-77
2021/03/23 04:54:09;;;;;;;16.52;10.50;;;5.80;90.40;;;;;;5039427;28;20029;-77
2021/03/23 04:56:36;;;;;;;18.35;10.30;;;5.80;90.40;;;;;;5008204;28;20116;-77
2021/03/23 04:59:02;;;;;;;16.63;10.30;;;5.80;90.50;;;;;;5032357;28;20151;-77
2021/03/23 05:01:28;;;;;;;18.60;9.48;;;5.80;90.40;;;;;;5028451;28;20078;-78
2021/03/23 05:04:02;;;;;;;16.83;10.48;;;5.70;90.60;;;;;;5022093;28;20436;-77
2021/03/23 05:06:28;;;;;;;20.48;10.57;;;5.80;90.50;;;;;;5015574;28;20494;-77
2021/03/23 05:08:53;;;;;;;15.93;8.82;;;5.80;90.60;;;;;;5023467;28;20092;-78
2021/03/23 05:11:22;;;;;;;19.50;11.07;;;5.80;90.60;;;;;;5019859;28;20141;-77
2021/03/23 05:13:48;;;;;;;20.75;11.98;;;5.90;90.40;;;;;;5026564;28;20132;-77
2021/03/23 05:16:14;;;;;;;17.52;9.98;;;5.80;90.40;;;;;;5029291;28;20033;-77
2021/03/23 05:18:39;;;;;;;15.85;9.45;;;5.90;90.40;;;;;;5033267;28;20025;-77
2021/03/23 05:21:05;;;;;;;20.27;11.88;;;5.90;90.50;;;;;;5030730;28;20674;-77
2021/03/23 05:23:31;;;;;;;22.90;13.10;;;5.90;90.30;;;;;;5022808;28;20029;-75
2021/03/23 05:25:57;;;;;;;18.52;8.95;;;5.90;90.40;;;;;;5025520;28;20068;-75
2021/03/23 05:28:22;;;;;;;17.30;10.23;;;5.90;90.40;;;;;;5029389;28;20049;-76
2021/03/23 05:30:48;;;;;;;18.17;9.95;;;5.90;90.40;;;;;;5031538;28;20041;-77
2021/03/23 05:33:13;;;;;;;17.85;9.35;;;5.90;90.40;;;;;;4337116;28;10000283;-77
2021/03/23 05:35:39;;;;;;;21.10;10.70;;;5.90;90.40;;;;;;5030227;28;20029;-77
2021/03/23 05:38:05;;;;;;;18.02;8.30;;;6.00;90.40;;;;;;5022327;28;20402;-77
2021/03/23 05:40:35;;;;;;;17.52;10.60;;;5.90;90.40;;;;;;5010942;28;20571;-77
2021/03/23 05:43:36;;;;;;;17.13;10.32;;;5.90;90.30;;;;;;5045969;28;20580;-77
2021/03/23 05:46:21;;;;;;;18.02;10.57;;;6.00;90.30;;;;;;5047802;28;20641;-77
2021/03/23 05:49:11;;;;;;;21.92;12.25;;;5.90;90.40;;;;;;5011697;28;20068;-77
2021/03/23 05:51:43;;;;;;;19.88;9.30;;;5.90;90.40;;;;;;5047412;28;20488;-77
2021/03/23 05:54:18;;;;;;;27.13;13.70;;;5.90;90.30;;;;;;5026335;28;20032;-77
2021/03/23 05:56:44;;;;;;;25.70;13.80;;;5.90;90.20;;;;;;5027202;28;20029;-77
2021/03/23 05:59:14;;;;;;;22.95;10.98;;;5.90;90.30;;;;;;5006751;28;20036;-77
2021/03/23 06:01:54;;;;;;;27.10;15.40;;;5.90;90.30;;;;;;4682294;28;10000048;-77
2021/03/23 06:04:26;;;;;;;22.50;12.32;;;5.90;90.30;;;;;;5000827;28;20048;-78
2021/03/23 06:07:02;;;;;;;24.58;11.82;;;5.90;90.30;;;;;;5013712;28;20065;-76
2021/03/23 06:09:33;;;;;;;29.10;14.25;;;5.90;90.30;;;;;;5000310;28;20090;-78
2021/03/23 06:12:36;;;;;;;24.20;13.02;;;5.90;90.30;;;;;;5021847;28;20484;-78
2021/03/23 06:15:23;;;;;;;27.13;13.75;;;6.00;90.40;;;;;;5049599;28;20126;-79
2021/03/23 06:17:51;;;;;;;26.25;12.85;;;6.00;90.30;;;;;;5032283;28;20037;-78
2021/03/23 06:20:38;;;;;;;22.75;12.77;;;6.00;90.20;;;;;;5047557;28;20060;-78
2021/03/23 06:23:15;;;;;;;19.75;11.18;;;6.10;90.20;;;;;;5026755;28;20639;-78
2021/03/23 06:26:07;;;;;;;25.20;13.27;;;6.10;90.10;;;;;;5049671;28;20051;-78
2021/03/23 06:28:35;;;;;;;20.17;12.00;;;6.20;90.10;;;;;;5040260;28;20634;-78
2021/03/23 06:31:20;;;;;;;30.02;15.82;;;6.10;90.10;;;;;;5035296;28;20123;-78
2021/03/23 06:33:46;;;;;;;25.20;13.60;;;6.20;90.20;;;;;;5048052;28;20044;-79
2021/03/23 06:36:23;;;;;;;30.90;16.38;;;6.20;90.20;;;;;;5025828;28;20033;-75
2021/03/23 06:38:48;;;;;;;20.95;11.43;;;6.20;90.20;;;;;;5013166;28;20043;-76
2021/03/23 06:41:14;;;;;;;25.88;14.30;;;6.20;90.30;;;;;;5013806;28;20037;-76
2021/03/23 06:43:48;;;;;;;21.30;12.70;;;6.30;90.20;;;;;;5055943;28;20045;-76
2021/03/23 06:46:26;;;;;;;23.25;12.10;;;6.30;90.20;;;;;;5012835;28;20029;-78
2021/03/23 06:49:01;;;;;;;29.83;13.70;;;6.30;90.10;;;;;;5047177;28;20033;-76
2021/03/23 06:51:26;;;;;;;22.88;12.40;;;6.30;90.00;;;;;;5049546;28;20033;-75
2021/03/23 06:53:52;;;;;;;21.88;13.70;;;6.40;90.10;;;;;;5029177;28;20074;-76
2021/03/23 06:56:22;;;;;;;25.13;12.57;;;6.40;89.90;;;;;;5015207;28;20082;-76
2021/03/23 06:59:03;;;;;;;25.38;12.68;;;6.40;90.20;;;;;;5031150;28;20033;-79
2021/03/23 07:01:38;;;;;;;28.25;15.15;;;6.40;89.90;;;;;;5022806;28;20033;-76
2021/03/23 07:04:23;;;;;;;23.02;12.23;;;6.40;89.70;;;;;;5010736;28;20139;-76
2021/03/23 07:07:02;;;;;;;28.98;14.10;;;6.40;89.70;;;;;;5046876;28;20048;-77
2021/03/23 07:09:27;;;;;;;24.65;14.40;;;6.50;89.60;;;;;;5048271;28;20445;-77
2021/03/23 07:12:03;;;;;;;25.95;14.05;;;6.50;89.50;;;;;;5046395;28;20116;-76
2021/03/23 07:14:38;;;;;;;21.25;10.95;;;6.40;89.40;;;;;;5010763;28;20040;-76
2021/03/23 07:17:08;;;;;;;26.08;14.82;;;6.50;89.70;;;;;;5013071;28;20056;-77
2021/03/23 07:19:46;;;;;;;27.00;13.35;;;6.50;89.60;;;;;;5044783;28;20088;-77
2021/03/23 07:22:36;;;;;;;27.95;14.68;;;6.60;89.70;;;;;;5027402;28;20043;-77
2021/03/23 07:25:03;;;;;;;26.40;14.52;;;6.60;89.60;;;;;;5030709;28;20508;-76
2021/03/23 07:27:29;;;;;;;27.75;14.52;;;6.60;89.50;;;;;;5015915;28;20533;-77
2021/03/23 07:30:13;;;;;;;18.25;8.00;;;6.70;89.50;;;;;;5030519;28;20045;-77
2021/03/23 07:32:42;;;;;;;25.35;12.50;;;6.60;89.10;;;;;;5037211;28;20063;-77
2021/03/23 07:35:19;;;;;;;28.88;13.30;;;6.70;89.20;;;;;;5023916;28;20036;-77
2021/03/23 07:38:03;;;;;;;17.20;8.70;;;6.70;89.00;;;;;;5044358;28;20037;-77
2021/03/23 07:40:49;;;;;;;29.98;14.75;;;6.70;88.90;;;;;;5048402;28;20037;-79
2021/03/23 07:43:21;;;;;;;;;;;6.70;88.80;;;;;;5042861;28;20032;-77
2021/03/23 07:45:54;;;;;;;30.58;14.95;;;6.70;89.00;;;;;;5043198;28;19913;-77
2021/03/23 07:48:34;;;;;;;28.08;15.35;;;6.70;88.70;;;;;;5026524;28;20082;-77
2021/03/23 07:51:09;;;;;;;31.38;15.13;;;6.80;88.80;;;;;;5036760;28;20477;-77
2021/03/23 07:53:40;;;;;;;28.08;12.32;;;6.90;88.80;;;;;;5026142;28;20419;-77
2021/03/23 07:56:23;;;;;;;30.15;15.77;;;6.80;88.50;;;;;;5036966;28;20509;-77
2021/03/23 07:59:25;;;;;;;31.27;16.88;;;6.90;88.50;;;;;;5008698;28;20037;-77
2021/03/23 08:02:05;;;;;;;27.45;14.85;;;6.90;88.50;;;;;;5000607;28;20328;-77
2021/03/23 08:04:54;;;;;;;29.92;18.15;;;7.00;88.40;;;;;;5028043;28;20040;-77
2021/03/23 08:07:27;;;;;;;29.77;15.15;;;7.10;89.70;;;;;;5023170;28;20025;-77
2021/03/23 08:10:03;;;;;;;26.70;12.75;;;7.20;88.20;;;;;;5002031;28;20033;-76
2021/03/23 08:12:34;;;;;;;;;;;7.20;88.40;;;;;;5032139;28;20036;-77
2021/03/23 08:15:12;;;;;;;35.75;18.20;;;7.40;88.00;;;;;;5048539;28;20008;-77
2021/03/23 08:18:00;;;;;;;29.10;15.40;;;7.50;88.10;;;;;;5016131;28;20513;-77
2021/03/23 08:20:45;;;;;;;33.08;16.38;;;7.50;87.70;;;;;;5022833;28;20044;-77
2021/03/23 08:23:38;;;;;;;35.35;18.15;;;7.60;88.00;;;;;;5049634;28;20041;-77
2021/03/23 08:26:31;;;;;;;36.80;18.52;;;7.70;87.40;;;;;;5046947;28;20063;-77
2021/03/23 08:29:19;;;;;;;34.38;18.02;;;7.90;88.30;;;;;;5045408;28;20037;-77
2021/03/23 08:32:00;;;;;;;33.67;16.85;;;8.10;86.80;;;;;;5046064;28;20164;-77
2021/03/23 08:34:41;;;;;;;33.05;16.98;;;8.10;86.70;;;;;;5020187;28;20527;-77
2021/03/23 08:37:37;;;;;;;36.03;15.75;;;8.20;86.70;;;;;;5042765;28;20044;-77
2021/03/23 08:40:11;;;;;;;35.63;18.70;;;8.30;86.60;;;;;;5045109;28;20049;-77
2021/03/23 08:42:37;;;;;;;34.63;16.45;;;8.50;86.80;;;;;;5035437;28;20119;-77
2021/03/23 08:45:04;;;;;;;29.90;16.10;;;8.70;85.80;;;;;;5041970;28;20374;-77
2021/03/23 08:47:34;;;;;;;22.38;10.60;;;8.80;86.50;;;;;;5051017;28;20029;-77
2021/03/23 08:50:14;;;;;;;44.55;20.02;;;8.80;85.00;;;;;;5012714;28;20033;-76
2021/03/23 08:52:47;;;;;;;32.90;15.18;;;9.00;85.80;;;;;;5026942;28;20086;-77
2021/03/23 08:55:31;;;;;;;39.13;16.30;;;9.00;84.70;;;;;;5026686;28;20032;-77
2021/03/23 08:58:04;;;;;;;36.08;17.55;;;9.30;85.10;;;;;;5050017;28;20033;-77
2021/03/23 09:00:36;;;;;;;34.88;15.90;;;9.50;84.10;;;;;;5033441;28;21016;-77
2021/03/23 09:03:07;;;;;;;28.15;17.70;;;9.60;83.60;;;;;;5039150;28;20128;-77
2021/03/23 09:06:00;;;;;;;27.00;11.93;;;9.80;84.50;;;;;;5052354;28;20029;-77
2021/03/23 09:08:39;;;;;;;36.05;18.40;;;10.00;82.80;;;;;;5024938;28;20063;-77
2021/03/23 09:11:07;;;;;;;38.72;19.38;;;10.20;83.30;;;;;;5034933;28;20450;-76
2021/03/23 09:13:35;;;;;;;16.50;8.10;;;10.40;84.10;;;;;;5047885;28;20041;-76
2021/03/23 09:16:07;;;;;;;33.78;15.93;;;10.50;81.70;;;;;;5038519;28;20041;-77
2021/03/23 09:18:35;;;;;;;34.80;14.30;;;10.70;81.90;;;;;;5029955;28;20036;-77
2021/03/23 09:21:04;;;;;;;34.53;18.40;;;10.90;81.00;;;;;;5027760;28;20072;-77
2021/03/23 09:23:34;;;;;;;37.67;19.67;;;11.00;82.70;;;;;;5050549;28;20665;-77
2021/03/23 09:26:01;;;;;;;28.52;11.48;;;11.30;79.90;;;;;;5048759;28;20036;-77
2021/03/23 09:28:29;;;;;;;45.08;20.42;;;11.50;80.60;;;;;;5032863;28;20037;-77
2021/03/23 09:30:59;;;;;;;36.88;19.80;;;11.60;84.30;;;;;;5050459;28;20048;-77
2021/03/23 09:33:24;;;;;;;38.17;18.42;;;11.70;81.00;;;;;;5050914;28;20036;-77
2021/03/23 09:36:11;;;;;;;35.10;19.63;;;12.00;79.80;;;;;;5050343;28;20033;-76
2021/03/23 09:38:42;;;;;;;40.92;16.15;;;12.10;79.10;;;;;;5047945;28;20102;-77
2021/03/23 09:41:20;;;;;;;35.58;15.82;;;12.30;76.20;;;;;;5029094;28;20415;-77
2021/03/23 09:43:49;;;;;;;18.35;9.23;;;12.50;76.70;;;;;;5040501;28;20040;-77
2021/03/23 09:46:43;;;;;;;28.00;12.25;;;12.40;77.80;;;;;;5009763;28;20494;-76
2021/03/23 09:49:15;;;;;;;28.67;9.23;;;12.50;77.80;;;;;;5064682;28;20098;-76
2021/03/23 09:51:48;;;;;;;32.80;16.63;;;12.40;77.80;;;;;;5046274;28;20484;-77
2021/03/23 09:54:17;;;;;;;30.50;12.93;;;12.50;77.50;;;;;;5045539;28;20047;-77
2021/03/23 09:56:44;;;;;;;34.88;16.92;;;12.90;74.70;;;;;;5017238;28;20041;-77
2021/03/23 09:59:12;;;;;;;31.02;16.52;;;12.90;75.90;;;;;;5012266;28;20527;-77
2021/03/23 10:01:53;;;;;;;28.35;15.77;;;13.10;74.30;;;;;;5049590;28;20037;-77
2021/03/23 10:04:40;;;;;;;32.83;17.38;;;13.30;72.20;;;;;;5051436;28;20124;-77
2021/03/23 10:07:08;;;;;;;31.20;17.15;;;13.30;73.20;;;;;;5053359;28;20144;-77
2021/03/23 10:09:36;;;;;;;24.48;13.45;;;13.60;71.60;;;;;;5007941;28;20475;-77
2021/03/23 10:12:01;;;;;;;28.08;15.45;;;13.60;71.70;;;;;;5027333;28;20041;-77
2021/03/23 10:14:39;;;;;;;31.95;13.43;;;13.60;71.90;;;;;;5033273;28;20040;-77
2021/03/23 10:17:13;;;;;;;23.15;12.82;;;13.60;73.20;;;;;;5025242;28;20088;-77
2021/03/23 10:19:44;;;;;;;19.42;9.05;;;13.70;73.10;;;;;;5021179;28;20021;-77
2021/03/23 10:22:12;;;;;;;24.08;10.98;;;13.50;72.10;;;;;;5061131;28;20063;-77
2021/03/23 10:24:39;;;;;;;21.55;11.75;;;13.50;72.40;;;;;;5018660;28;20540;-77
2021/03/23 10:27:19;;;;;;;16.20;7.47;;;13.90;71.60;;;;;;5043300;28;20038;-77
2021/03/23 10:29:56;;;;;;;21.77;12.10;;;13.80;70.80;;;;;;5032593;28;20123;-77
2021/03/23 10:32:43;;;;;;;25.90;14.48;;;14.20;69.90;;;;;;5039655;28;20124;-77
2021/03/23 10:35:20;;;;;;;25.05;12.43;;;14.50;69.20;;;;;;5041081;28;20020;-77
2021/03/23 10:37:47;;;;;;;20.38;12.02;;;14.30;68.60;;;;;;5019941;28;20393;-77
2021/03/23 10:40:34;;;;;;;24.98;13.32;;;14.40;69.60;;;;;;5009061;28;20040;-77
2021/03/23 10:43:00;;;;;;;20.80;11.93;;;14.50;69.40;;;;;;5010342;28;20033;-77
2021/03/23 10:45:41;;;;;;;19.67;9.00;;;14.70;67.30;;;;;;5032977;28;20068;-77
2021/03/23 10:48:21;;;;;;;24.38;14.02;;;14.60;69.30;;;;;;5010378;28;20415;-77
2021/03/23 10:51:07;;;;;;;24.80;14.25;;;15.00;67.10;;;;;;5047930;28;20507;-77
2021/03/23 10:53:33;;;;;;;;;;;15.00;68.40;;;;;;5046929;28;20029;-77
2021/03/23 10:55:58;;;;;;;21.30;12.93;;;14.30;71.20;;;;;;5033274;28;20319;-77
2021/03/23 10:58:26;;;;;;;21.02;11.32;;;14.70;71.00;;;;;;5016922;28;20078;-77
2021/03/23 11:01:16;;;;;;;14.40;7.72;;;15.20;67.50;;;;;;5030742;28;20405;-77
2021/03/23 11:03:43;;;;;;;25.27;13.00;;;15.30;68.00;;;;;;5009955;28;20107;-77
2021/03/23 11:06:30;;;;;;;24.55;12.90;;;15.50;67.40;;;;;;5030592;28;20036;-78
2021/03/23 11:08:55;;;;;;;21.15;10.90;;;15.80;67.50;;;;;;5020274;28;20516;-77
2021/03/23 11:11:21;;;;;;;12.93;6.60;;;16.20;65.80;;;;;;5041511;28;20029;-77
2021/03/23 11:13:46;;;;;;;13.63;8.25;;;16.20;64.10;;;;;;5028810;28;20033;-77
2021/03/23 11:16:15;;;;;;;23.25;12.45;;;16.40;63.90;;;;;;5034930;28;20028;-77
2021/03/23 11:18:40;;;;;;;22.27;12.00;;;16.50;61.70;;;;;;5015430;28;20029;-77
2021/03/23 11:21:06;;;;;;;26.58;12.95;;;16.70;62.50;;;;;;5027124;28;20495;-77
2021/03/23 11:23:39;;;;;;;23.63;14.43;;;16.90;62.50;;;;;;5016843;28;20422;-77
2021/03/23 11:26:05;;;;;;;21.85;12.25;;;16.80;59.30;;;;;;5018449;28;20120;-78
2021/03/23 11:28:31;;;;;;;23.05;13.52;;;16.80;59.50;;;;;;5031393;28;20544;-78
2021/03/23 11:31:02;;;;;;;20.55;12.38;;;16.90;59.40;;;;;;5032124;28;20127;-78
2021/03/23 11:33:28;;;;;;;22.50;13.05;;;16.80;59.50;;;;;;5017155;28;20571;-77
2021/03/23 11:35:54;;;;;;;23.58;12.73;;;16.70;58.60;;;;;;5030994;28;20090;-77
2021/03/23 11:38:20;;;;;;;15.48;9.05;;;16.50;58.90;;;;;;5049898;28;20028;-77
2021/03/23 11:40:45;;;;;;;23.95;14.30;;;16.70;59.60;;;;;;5015137;28;20052;-77
2021/03/23 11:43:30;;;;;;;26.05;11.35;;;16.50;63.40;;;;;;5011704;28;20085;-77
2021/03/23 11:45:59;;;;;;;22.80;13.63;;;16.40;61.90;;;;;;5026618;28;20048;-77
2021/03/23 11:48:25;;;;;;;30.45;17.88;;;16.20;63.80;;;;;;5015957;28;20036;-77
2021/03/23 11:50:51;;;;;;;24.55;15.98;;;16.30;67.30;;;;;;5010662;28;20091;-77
2021/03/23 11:53:17;;;;;;;22.30;13.73;;;16.50;66.80;;;;;;5030476;28;20044;-77
2021/03/23 11:55:44;;;;;;;19.58;12.88;;;16.60;64.40;;;;;;5029961;28;20025;-77
2021/03/23 11:58:10;;;;;;;22.75;13.52;;;16.70;62.20;;;;;;5013921;28;20564;-77
2021/03/23 12:00:36;;;;;;;20.23;11.57;;;16.90;63.90;;;;;;5002499;28;20084;-77
2021/03/23 12:03:06;;;;;;;22.65;14.00;;;16.80;65.80;;;;;;5025607;28;20052;-77
2021/03/23 12:05:32;;;;;;;20.23;13.05;;;16.80;69.00;;;;;;5016158;28;20033;-78
2021/03/23 12:08:16;;;;;;;26.13;14.80;;;16.90;66.70;;;;;;5015959;28;20127;-77
2021/03/23 12:11:08;;;;;;;29.15;15.15;;;17.00;63.70;;;;;;5026826;28;20033;-77
2021/03/23 12:13:55;;;;;;;22.85;13.70;;;17.10;63.70;;;;;;5045689;28;20029;-77
2021/03/23 12:16:39;;;;;;;19.27;10.52;;;16.90;64.60;;;;;;5025417;28;20036;-77
2021/03/23 12:19:08;;;;;;;25.35;11.38;;;16.80;62.60;;;;;;5067678;28;20044;-77
2021/03/23 12:21:33;;;;;;;25.30;15.27;;;16.80;62.30;;;;;;5025990;28;20040;-77
2021/03/23 12:23:59;;;;;;;26.75;15.35;;;16.80;64.30;;;;;;5034658;28;20037;-77
2021/03/23 12:26:25;;;;;;;25.20;15.05;;;16.90;67.10;;;;;;5035450;28;20052;-77
2021/03/23 12:28:50;;;;;;;26.33;15.05;;;16.90;68.10;;;;;;5031225;28;20037;-77
2021/03/23 12:31:16;;;;;;;22.77;13.38;;;16.80;67.20;;;;;;5012377;28;20390;-77
2021/03/23 12:33:42;;;;;;;25.40;13.15;;;16.70;63.30;;;;;;5027418;28;20473;-77
2021/03/23 12:36:08;;;;;;;22.30;13.07;;;16.60;66.00;;;;;;5053656;28;20091;-77
2021/03/23 12:38:34;;;;;;;21.25;13.07;;;16.80;67.10;;;;;;5019197;28;20029;-77
2021/03/23 12:41:00;;;;;;;17.45;12.65;;;16.80;64.80;;;;;;5019372;28;20076;-77
2021/03/23 12:43:27;;;;;;;25.40;14.80;;;17.00;68.90;;;;;;5035320;28;20512;-77
2021/03/23 12:45:55;;;;;;;23.80;13.90;;;17.00;70.40;;;;;;5033676;28;20068;-77
2021/03/23 12:48:20;;;;;;;13.07;7.47;;;17.00;65.70;;;;;;5020388;28;20040;-77
2021/03/23 12:50:46;;;;;;;26.52;14.90;;;16.90;64.90;;;;;;5012788;28;20497;-77
2021/03/23 12:53:13;;;;;;;24.23;15.23;;;16.70;71.10;;;;;;5046235;28;20132;-77
2021/03/23 12:55:40;;;;;;;21.35;13.00;;;16.60;62.70;;;;;;5011063;28;20059;-77
2021/03/23 12:58:06;;;;;;;20.38;13.32;;;16.60;64.10;;;;;;5024454;28;20496;-77